createdAt,value
2018-11-10T00:00:36.849Z,97.40
2018-11-10T00:03:06.383Z,97.20
2018-11-10T00:05:35.171Z,97.30
2018-11-10T00:08:03.858Z,97.80
2018-11-10T00:10:38.902Z,97.70
2018-11-10T00:13:07.583Z,97.60
2018-11-10T00:15:36.214Z,97.50
2018-11-10T00:18:05.343Z,97.30
2018-11-10T00:20:34.096Z,97.00
2018-11-10T00:23:02.876Z,96.80
2018-11-10T00:25:31.529Z,96.70
2018-11-10T00:28:00.262Z,97.00
2018-11-10T00:30:28.936Z,96.90
2018-11-10T00:32:57.705Z,97.20
2018-11-10T00:35:26.410Z,97.30
2018-11-10T00:37:55.122Z,97.80
2018-11-10T00:40:23.849Z,97.60
2018-11-10T00:42:52.576Z,98.00
2018-11-10T00:45:21.273Z,97.70
2018-11-10T00:47:49.964Z,97.80
2018-11-10T00:50:18.647Z,97.80
2018-11-10T00:52:47.371Z,97.70
2018-11-10T00:55:16.124Z,97.70
2018-11-10T00:57:44.816Z,97.70
2018-11-10T01:00:13.964Z,97.90
2018-11-10T01:02:43.948Z,97.70
2018-11-10T01:05:12.717Z,97.80
2018-11-10T01:07:41.705Z,97.90
2018-11-10T01:10:11.763Z,97.60
2018-11-10T01:12:40.620Z,97.50
2018-11-10T01:15:11.535Z,97.60
2018-11-10T01:17:40.502Z,97.50
2018-11-10T01:20:10.221Z,97.40
2018-11-10T01:22:39.069Z,97.50
2018-11-10T01:25:09.101Z,97.60
2018-11-10T01:27:37.966Z,97.60
2018-11-10T01:30:08.838Z,97.60
2018-11-10T01:32:37.548Z,97.40
2018-11-10T01:35:06.416Z,97.20
2018-11-10T01:37:35.155Z,97.40
2018-11-10T01:40:03.903Z,97.50
2018-11-10T01:42:32.587Z,97.40
2018-11-10T01:45:01.351Z,97.20
2018-11-10T01:47:30.057Z,97.30
2018-11-10T01:49:59.115Z,97.40
2018-11-10T01:52:27.802Z,98.00
2018-11-10T01:54:56.466Z,97.70
2018-11-10T01:57:25.138Z,97.70
2018-11-10T01:59:53.766Z,97.30
2018-11-10T02:02:22.528Z,97.60
2018-11-10T02:04:51.221Z,97.40
2018-11-10T02:07:19.944Z,97.60
2018-11-10T02:09:48.597Z,97.50
2018-11-10T02:12:17.325Z,97.60
2018-11-10T02:14:46.009Z,97.40
2018-11-10T02:17:14.704Z,97.20
2018-11-10T02:19:43.484Z,97.10
2018-11-10T02:22:12.304Z,97.10
2018-11-10T02:24:40.997Z,97.20
2018-11-10T02:27:13.967Z,97.20
2018-11-10T02:29:42.633Z,97.10
2018-11-10T02:32:11.357Z,96.80
2018-11-10T02:34:40.076Z,97.20
2018-11-10T02:37:08.774Z,97.10
2018-11-10T02:39:37.454Z,97.30
2018-11-10T02:42:06.247Z,96.90
2018-11-10T02:44:34.922Z,97.00
2018-11-10T02:47:03.680Z,96.80
2018-11-10T02:49:32.363Z,96.80
2018-11-10T02:52:01.204Z,96.70
2018-11-10T02:54:29.867Z,96.50
2018-11-10T02:56:58.568Z,96.40
2018-11-10T02:59:27.228Z,96.50
2018-11-10T03:01:55.931Z,96.30
2018-11-10T03:04:24.626Z,96.10
2018-11-10T03:06:53.344Z,96.00
2018-11-10T03:09:22.153Z,95.90
2018-11-10T03:11:50.851Z,96.10
2018-11-10T03:14:19.514Z,96.50
2018-11-10T03:16:48.221Z,96.60
2018-11-10T03:19:16.911Z,96.50
2018-11-10T03:21:45.596Z,96.50
2018-11-10T03:24:14.289Z,96.50
2018-11-10T03:26:42.973Z,96.50
2018-11-10T03:29:11.644Z,96.70
2018-11-10T03:31:40.439Z,96.60
2018-11-10T03:34:09.161Z,96.40
2018-11-10T03:36:37.835Z,96.40
2018-11-10T03:39:09.012Z,96.30
2018-11-10T03:41:37.688Z,96.60
2018-11-10T03:44:06.558Z,96.70
2018-11-10T03:46:35.231Z,96.10
2018-11-10T03:49:04.014Z,96.40
2018-11-10T03:51:32.729Z,96.20
2018-11-10T03:54:01.723Z,96.30
2018-11-10T03:56:30.429Z,96.30
2018-11-10T03:58:59.145Z,96.10
2018-11-10T04:01:27.857Z,95.90
2018-11-10T04:03:56.571Z,96.10
2018-11-10T04:06:25.276Z,96.40
2018-11-10T04:08:53.983Z,96.30
2018-11-10T04:11:22.795Z,95.90
2018-11-10T04:13:51.478Z,95.90
2018-11-10T04:16:20.212Z,95.90
2018-11-10T04:18:48.908Z,95.80
2018-11-10T04:21:17.653Z,96.00
2018-11-10T04:23:46.307Z,96.10
2018-11-10T04:26:15.018Z,96.40
2018-11-10T04:28:43.721Z,96.50
2018-11-10T04:31:12.368Z,96.70
2018-11-10T04:33:41.060Z,97.10
2018-11-10T04:36:09.795Z,97.30
2018-11-10T04:38:38.526Z,97.10
2018-11-10T04:41:07.477Z,97.30
2018-11-10T04:43:36.139Z,97.10
2018-11-10T04:46:04.794Z,97.00
2018-11-10T04:48:40.823Z,97.40
2018-11-10T04:51:09.579Z,97.40
2018-11-10T04:53:38.219Z,97.40
2018-11-10T04:56:06.946Z,97.00
2018-11-10T04:58:35.649Z,96.80
2018-11-10T05:01:04.495Z,97.10
2018-11-10T05:03:33.163Z,97.60
2018-11-10T05:06:01.873Z,97.30
2018-11-10T05:08:30.544Z,97.10
2018-11-10T05:10:59.217Z,97.40
2018-11-10T05:13:27.963Z,97.20
2018-11-10T05:15:56.678Z,97.40
2018-11-10T05:18:25.351Z,97.50
2018-11-10T05:20:54.081Z,97.50
2018-11-10T05:23:22.839Z,97.00
2018-11-10T05:25:51.489Z,96.90
2018-11-10T05:28:20.198Z,96.90
2018-11-10T05:30:48.832Z,96.90
2018-11-10T05:33:23.968Z,96.90
2018-11-10T05:35:52.700Z,97.40
2018-11-10T05:38:21.396Z,97.60
2018-11-10T05:40:50.037Z,97.50
2018-11-10T05:43:18.756Z,97.20
2018-11-10T05:45:47.381Z,97.20
2018-11-10T05:48:16.075Z,97.30
2018-11-10T05:50:44.789Z,97.20
2018-11-10T05:53:13.471Z,97.80
2018-11-10T05:55:42.183Z,97.70
2018-11-10T05:58:10.921Z,97.90
2018-11-10T06:00:39.597Z,97.90
2018-11-10T06:03:08.409Z,97.80
2018-11-10T06:05:37.059Z,97.70
2018-11-10T06:08:06.093Z,97.60
2018-11-10T06:10:34.779Z,97.40
2018-11-10T06:13:03.653Z,97.70
2018-11-10T06:15:32.329Z,97.60
2018-11-10T06:18:01.170Z,97.80
2018-11-10T06:20:29.811Z,97.70
2018-11-10T06:22:58.511Z,97.30
2018-11-10T06:25:27.228Z,97.50
2018-11-10T06:27:55.900Z,97.40
2018-11-10T06:30:27.586Z,97.50
2018-11-10T06:32:56.260Z,97.40
2018-11-10T06:35:24.974Z,97.70
2018-11-10T06:37:53.936Z,97.60
2018-11-10T06:40:22.690Z,97.50
2018-11-10T06:42:51.317Z,97.50
2018-11-10T06:45:20.260Z,97.50
2018-11-10T06:47:48.908Z,97.50
2018-11-10T06:50:17.570Z,97.70
2018-11-10T06:52:46.242Z,97.60
2018-11-10T06:55:14.968Z,97.70
2018-11-10T06:57:43.641Z,97.60
2018-11-10T07:00:14.125Z,97.60
2018-11-10T07:02:43.225Z,97.40
2018-11-10T07:05:12.739Z,97.40
2018-11-10T07:07:41.526Z,97.70
2018-11-10T07:10:10.577Z,97.90
2018-11-10T07:12:39.305Z,97.90
2018-11-10T07:15:08.619Z,97.60
2018-11-10T07:17:37.378Z,97.60
2018-11-10T07:20:06.421Z,97.60
2018-11-10T07:22:35.116Z,98.00
2018-11-10T07:25:03.920Z,97.80
2018-11-10T07:27:32.584Z,97.90
2018-11-10T07:30:01.257Z,97.80
2018-11-10T07:32:29.969Z,97.80
2018-11-10T07:34:58.629Z,97.90
2018-11-10T07:37:27.396Z,97.70
2018-11-10T07:39:56.042Z,97.30
2018-11-10T07:42:24.798Z,97.30
2018-11-10T07:44:53.501Z,97.20
2018-11-10T07:47:22.245Z,97.30
2018-11-10T07:49:50.889Z,97.30
2018-11-10T07:52:19.564Z,97.00
2018-11-10T07:54:48.196Z,97.20
2018-11-10T07:57:17.153Z,96.80
2018-11-10T07:59:45.821Z,96.60
2018-11-10T08:02:14.557Z,97.00
2018-11-10T08:04:43.272Z,96.80
2018-11-10T08:07:11.946Z,96.40
2018-11-10T08:09:40.898Z,96.20
2018-11-10T08:12:09.570Z,95.70
2018-11-10T08:14:38.196Z,95.80
2018-11-10T08:17:07.249Z,95.60
2018-11-10T08:19:35.939Z,95.40
2018-11-10T08:22:04.695Z,95.20
2018-11-10T08:24:33.436Z,95.40
2018-11-10T08:27:02.276Z,95.70
2018-11-10T08:29:31.021Z,95.70
2018-11-10T08:31:59.756Z,95.80
2018-11-10T08:34:28.439Z,95.60
2018-11-10T08:36:57.124Z,95.70
2018-11-10T08:39:25.857Z,95.70
2018-11-10T08:41:54.563Z,95.20
2018-11-10T08:44:23.232Z,95.20
2018-11-10T08:46:51.932Z,95.20
2018-11-10T08:49:20.698Z,94.80
2018-11-10T08:51:49.425Z,94.50
2018-11-10T08:54:18.096Z,93.30
2018-11-10T08:56:46.966Z,92.70
2018-11-10T08:59:15.706Z,93.10
2018-11-10T09:01:44.329Z,93.50
2018-11-10T09:04:13.061Z,93.30
2018-11-10T09:06:41.735Z,93.70
2018-11-10T09:09:11.092Z,93.70
2018-11-10T09:11:39.735Z,94.00
2018-11-10T09:14:14.682Z,94.20
2018-11-10T09:16:43.349Z,93.80
2018-11-10T09:19:12.036Z,94.20
2018-11-10T09:21:40.690Z,93.00
2018-11-10T09:24:09.411Z,92.80
2018-11-10T09:26:38.135Z,92.50
2018-11-10T09:29:07.249Z,92.30
2018-11-10T09:31:35.948Z,92.20
2018-11-10T09:34:04.773Z,91.80
2018-11-10T09:36:33.713Z,92.10
2018-11-10T09:39:02.504Z,91.60
2018-11-10T09:41:31.314Z,90.10
2018-11-10T09:43:59.976Z,90.00
2018-11-10T09:46:29.019Z,87.70
2018-11-10T09:48:57.746Z,86.80
2018-11-10T09:51:26.571Z,86.60
2018-11-10T09:53:55.354Z,86.30
2018-11-10T09:56:24.085Z,83.80
2018-11-10T09:58:52.768Z,81.60
2018-11-10T10:01:21.661Z,79.40
2018-11-10T10:03:50.559Z,77.70
2018-11-10T10:06:19.419Z,77.10
2018-11-10T10:08:49.454Z,75.70
2018-11-10T10:11:18.227Z,74.40
2018-11-10T10:13:46.969Z,73.50
2018-11-10T10:16:15.725Z,74.70
2018-11-10T10:18:44.403Z,75.40
2018-11-10T10:21:13.101Z,75.10
2018-11-10T10:23:41.861Z,76.80
2018-11-10T10:26:10.697Z,76.70
2018-11-10T10:28:39.549Z,76.90
2018-11-10T10:31:08.141Z,76.50
2018-11-10T10:33:36.829Z,75.60
2018-11-10T10:36:05.781Z,75.80
2018-11-10T10:38:34.432Z,75.30
2018-11-10T10:41:03.142Z,75.00
2018-11-10T10:43:31.910Z,74.50
2018-11-10T10:46:00.812Z,73.30
2018-11-10T10:48:29.716Z,73.10
2018-11-10T10:50:58.564Z,73.00
2018-11-10T10:53:27.574Z,73.90
2018-11-10T10:55:56.457Z,73.00
2018-11-10T10:58:25.192Z,72.60
2018-11-10T11:00:59.116Z,73.70
2018-11-10T11:03:33.035Z,73.70
2018-11-10T11:06:02.860Z,74.00
2018-11-10T11:08:31.936Z,76.20
2018-11-10T11:11:00.693Z,77.20
2018-11-10T11:13:29.369Z,78.50
2018-11-10T11:15:58.161Z,79.50
2018-11-10T11:18:26.945Z,80.40
2018-11-10T11:20:55.797Z,80.50
2018-11-10T11:23:25.602Z,81.50
2018-11-10T11:25:54.434Z,81.20
2018-11-10T11:28:23.204Z,82.40
2018-11-10T11:30:52.288Z,82.00
2018-11-10T11:33:20.978Z,82.40
2018-11-10T11:35:49.645Z,82.10
2018-11-10T11:38:18.340Z,82.30
2018-11-10T11:40:47.229Z,82.40
2018-11-10T11:43:15.907Z,82.40
2018-11-10T11:45:44.695Z,82.90
2018-11-10T11:48:13.601Z,83.10
2018-11-10T11:50:42.369Z,83.90
2018-11-10T11:53:11.152Z,83.50
2018-11-10T11:55:39.874Z,83.80
2018-11-10T11:58:08.781Z,83.20
2018-11-10T12:00:37.455Z,83.70
2018-11-10T12:03:06.326Z,84.00
2018-11-10T12:05:35.183Z,85.10
2018-11-10T12:08:03.881Z,84.50
2018-11-10T12:10:32.574Z,84.60
2018-11-10T12:13:01.373Z,84.60
2018-11-10T12:15:30.451Z,85.00
2018-11-10T12:17:59.141Z,85.00
2018-11-10T12:20:28.046Z,84.70
2018-11-10T12:22:57.149Z,84.90
2018-11-10T12:25:26.016Z,84.60
2018-11-10T12:27:55.089Z,84.70
2018-11-10T12:30:23.849Z,84.20
2018-11-10T12:32:52.549Z,84.40
2018-11-10T12:35:21.450Z,84.20
2018-11-10T12:37:50.171Z,84.40
2018-11-10T12:40:19.964Z,84.00
2018-11-10T12:42:48.781Z,84.20
2018-11-10T12:45:17.961Z,84.80
2018-11-10T12:47:47.164Z,85.80
2018-11-10T12:50:16.439Z,85.80
2018-11-10T12:52:46.010Z,86.10
2018-11-10T12:55:15.936Z,85.30
2018-11-10T12:57:45.695Z,85.90
2018-11-10T13:00:15.877Z,86.10
2018-11-10T13:02:45.040Z,86.20
2018-11-10T13:05:13.916Z,86.80
2018-11-10T13:07:44.424Z,87.30
2018-11-10T13:10:13.407Z,86.90
2018-11-10T13:12:42.934Z,87.40
2018-11-10T13:15:11.926Z,87.40
2018-11-10T13:17:40.961Z,87.60
2018-11-10T13:20:12.037Z,87.70
2018-11-10T13:22:40.929Z,87.40
2018-11-10T13:25:10.940Z,87.40
2018-11-10T13:27:39.947Z,87.70
2018-11-10T13:30:10.258Z,87.90
2018-11-10T13:32:39.265Z,87.90
2018-11-10T13:35:09.170Z,87.80
2018-11-10T13:37:37.920Z,87.80
2018-11-10T13:40:07.605Z,87.70
2018-11-10T13:42:36.592Z,87.90
2018-11-10T13:45:06.649Z,87.90
2018-11-10T13:47:35.365Z,87.80
2018-11-10T13:50:04.418Z,88.00
2018-11-10T13:52:33.547Z,87.80
2018-11-10T13:55:02.134Z,87.90
2018-11-10T13:57:30.896Z,87.60
2018-11-10T13:59:59.879Z,87.10
2018-11-10T14:02:28.668Z,87.20
2018-11-10T14:04:57.380Z,87.30
2018-11-10T14:07:26.146Z,87.40
2018-11-10T14:09:54.839Z,87.10
2018-11-10T14:12:23.633Z,87.60
2018-11-10T14:14:52.305Z,87.80
2018-11-10T14:17:21.174Z,87.40
2018-11-10T14:19:49.941Z,87.60
2018-11-10T14:22:18.733Z,88.00
2018-11-10T14:24:47.446Z,88.20
2018-11-10T14:27:16.215Z,88.40
2018-11-10T14:29:44.944Z,88.60
2018-11-10T14:32:13.780Z,88.50
2018-11-10T14:34:42.569Z,88.50
2018-11-10T14:37:11.432Z,89.20
2018-11-10T14:39:40.104Z,89.70
2018-11-10T14:42:08.906Z,90.20
2018-11-10T14:44:37.681Z,90.00
2018-11-10T14:47:06.475Z,90.00
2018-11-10T14:49:35.143Z,90.10
2018-11-10T14:52:04.052Z,90.20
2018-11-10T14:54:33.012Z,90.40
2018-11-10T14:57:01.908Z,90.50
2018-11-10T14:59:30.608Z,90.70
2018-11-10T15:01:59.378Z,90.90
2018-11-10T15:04:28.060Z,91.00
2018-11-10T15:06:56.821Z,91.30
2018-11-10T15:09:25.553Z,91.30
2018-11-10T15:11:54.462Z,91.30
2018-11-10T15:14:23.216Z,91.40
2018-11-10T15:16:52.088Z,91.40
2018-11-10T15:19:20.766Z,91.50
2018-11-10T15:21:49.471Z,91.50
2018-11-10T15:24:18.088Z,91.60
2018-11-10T15:26:46.754Z,91.90
2018-11-10T15:29:15.446Z,91.90
2018-11-10T15:31:44.045Z,92.10
2018-11-10T15:34:12.780Z,92.30
2018-11-10T15:36:41.642Z,92.10
2018-11-10T15:39:10.380Z,92.40
2018-11-10T15:41:39.036Z,92.30
2018-11-10T15:44:07.901Z,92.30
2018-11-10T15:46:36.534Z,92.40
2018-11-10T15:49:05.336Z,92.70
2018-11-10T15:51:33.950Z,92.40
2018-11-10T15:54:02.966Z,92.50
2018-11-10T15:56:31.775Z,92.60
2018-11-10T15:59:00.558Z,92.60
2018-11-10T16:01:29.945Z,92.90
2018-11-10T16:03:58.658Z,92.90
2018-11-10T16:06:27.328Z,92.90
2018-11-10T16:08:56.500Z,93.00
2018-11-10T16:11:25.429Z,93.10
2018-11-10T16:13:54.214Z,93.10
2018-11-10T16:16:22.962Z,93.30
2018-11-10T16:18:51.756Z,93.20
2018-11-10T16:21:22.387Z,93.20
2018-11-10T16:23:51.133Z,93.20
2018-11-10T16:26:19.823Z,93.20
2018-11-10T16:28:48.560Z,93.30
2018-11-10T16:31:17.301Z,93.40
2018-11-10T16:33:45.964Z,93.50
2018-11-10T16:36:14.749Z,93.60
2018-11-10T16:38:43.456Z,93.70
2018-11-10T16:41:12.266Z,93.60
2018-11-10T16:43:41.024Z,93.90
2018-11-10T16:46:09.911Z,94.00
2018-11-10T16:48:38.919Z,94.30
2018-11-10T16:51:07.881Z,94.90
2018-11-10T16:53:36.617Z,94.50
2018-11-10T16:56:05.470Z,94.50
2018-11-10T16:58:34.598Z,94.70
2018-11-10T17:01:03.325Z,95.10
2018-11-10T17:03:31.988Z,94.80
2018-11-10T17:06:00.746Z,95.20
2018-11-10T17:08:29.522Z,95.40
2018-11-10T17:10:58.157Z,95.60
2018-11-10T17:13:26.918Z,95.00
2018-11-10T17:15:55.518Z,95.70
2018-11-10T17:18:24.268Z,95.80
2018-11-10T17:20:53.167Z,95.70
2018-11-10T17:23:21.981Z,95.80
2018-11-10T17:25:50.620Z,95.60
2018-11-10T17:28:19.430Z,96.00
2018-11-10T17:30:48.080Z,95.90
2018-11-10T17:33:17.019Z,96.10
2018-11-10T17:35:45.646Z,96.60
2018-11-10T17:38:14.319Z,96.50
2018-11-10T17:40:42.972Z,96.70
2018-11-10T17:43:11.648Z,97.20
2018-11-10T17:45:40.281Z,97.20
2018-11-10T17:48:09.079Z,97.10
2018-11-10T17:50:37.762Z,97.00
2018-11-10T17:53:06.687Z,97.10
2018-11-10T17:55:35.360Z,97.10
2018-11-10T17:58:04.040Z,97.40
2018-11-10T18:00:32.709Z,97.10
2018-11-10T18:03:01.393Z,96.90
2018-11-10T18:05:30.060Z,96.90
2018-11-10T18:07:58.751Z,96.80
2018-11-10T18:10:27.645Z,96.90
2018-11-10T18:12:56.400Z,97.30
2018-11-10T18:15:26.137Z,97.40
2018-11-10T18:17:54.798Z,97.70
2018-11-10T18:20:23.496Z,97.70
2018-11-10T18:22:52.176Z,97.50
2018-11-10T18:25:21.229Z,97.40
2018-11-10T18:27:50.026Z,97.50
2018-11-10T18:30:18.668Z,97.60
2018-11-10T18:32:47.657Z,97.90
2018-11-10T18:35:16.388Z,97.80
2018-11-10T18:37:45.049Z,97.70
2018-11-10T18:40:13.733Z,97.50
2018-11-10T18:42:42.432Z,97.60
2018-11-10T18:45:12.069Z,97.60
2018-11-10T18:47:41.159Z,97.70
2018-11-10T18:50:11.991Z,97.60
2018-11-10T18:52:40.755Z,97.50
2018-11-10T18:55:09.427Z,97.50
2018-11-10T18:57:38.434Z,97.40
2018-11-10T19:00:09.409Z,97.20
2018-11-10T19:02:38.330Z,97.20
2018-11-10T19:05:08.406Z,97.20
2018-11-10T19:07:37.403Z,97.20
2018-11-10T19:10:07.582Z,97.20
2018-11-10T19:12:36.445Z,97.20
2018-11-10T19:15:05.927Z,97.10
2018-11-10T19:17:34.593Z,96.80
2018-11-10T19:20:03.435Z,96.70
2018-11-10T19:22:32.190Z,96.90
2018-11-10T19:25:01.151Z,96.90
2018-11-10T19:27:29.937Z,97.10
2018-11-10T19:29:58.643Z,97.00
2018-11-10T19:32:27.449Z,97.10
2018-11-10T19:34:56.070Z,97.30
2018-11-10T19:37:24.861Z,97.20
2018-11-10T19:39:53.541Z,97.40
2018-11-10T19:42:22.302Z,97.30
2018-11-10T19:44:50.981Z,97.80
2018-11-10T19:47:19.694Z,97.90
2018-11-10T19:49:48.738Z,98.10
2018-11-10T19:52:19.075Z,98.20
2018-11-10T19:54:47.734Z,98.70
2018-11-10T19:57:16.501Z,99.00
2018-11-10T19:59:45.161Z,99.00
2018-11-10T20:02:13.881Z,99.10
2018-11-10T20:04:42.548Z,98.80
2018-11-10T20:07:11.251Z,99.00
2018-11-10T20:09:39.910Z,98.70
2018-11-10T20:12:08.619Z,98.80
2018-11-10T20:14:37.316Z,99.20
2018-11-10T20:17:06.114Z,99.30
2018-11-10T20:19:34.819Z,98.80
2018-11-10T20:22:03.583Z,99.00
2018-11-10T20:24:32.273Z,99.70
2018-11-10T20:27:01.389Z,99.20
2018-11-10T20:29:30.058Z,99.30
2018-11-10T20:31:58.773Z,99.00
2018-11-10T20:34:27.413Z,99.00
2018-11-10T20:36:56.102Z,99.00
2018-11-10T20:39:24.855Z,99.20
2018-11-10T20:41:53.578Z,99.20
2018-11-10T20:44:22.273Z,99.30
2018-11-10T20:46:51.106Z,98.70
2018-11-10T20:49:19.767Z,98.90
2018-11-10T20:51:48.741Z,98.60
2018-11-10T20:54:17.425Z,98.90
2018-11-10T20:56:46.119Z,98.30
2018-11-10T20:59:14.784Z,98.60
2018-11-10T21:01:43.504Z,98.60
2018-11-10T21:04:12.153Z,98.40
2018-11-10T21:06:41.082Z,98.40
2018-11-10T21:09:11.828Z,99.30
2018-11-10T21:11:40.582Z,99.50
2018-11-10T21:14:10.106Z,99.20
2018-11-10T21:22:41.926Z,98.80
2018-11-10T21:28:13.519Z,99.20
2018-11-10T21:30:42.270Z,99.40
2018-11-10T21:33:10.998Z,99.50
2018-11-10T21:35:40.869Z,99.40
2018-11-10T21:38:09.545Z,98.90
2018-11-10T21:40:38.248Z,98.80
2018-11-10T21:43:07.057Z,99.00
2018-11-10T21:45:35.867Z,99.10
2018-11-10T21:48:04.755Z,99.00
2018-11-10T21:50:33.608Z,98.90
2018-11-10T21:53:02.353Z,98.90
2018-11-10T21:55:31.362Z,98.90
2018-11-10T21:58:00.147Z,99.10
2018-11-10T22:00:28.820Z,98.90
2018-11-10T22:02:57.614Z,99.00
2018-11-10T22:05:26.354Z,99.20
2018-11-10T22:07:55.082Z,99.40
2018-11-10T22:10:24.056Z,99.20
2018-11-10T22:12:52.803Z,99.30
2018-11-10T22:15:22.678Z,99.20
2018-11-10T22:17:51.651Z,99.20
2018-11-10T22:20:21.737Z,99.00
2018-11-10T22:22:50.605Z,98.80
2018-11-10T22:25:19.462Z,98.70
2018-11-10T22:27:49.602Z,98.60
2018-11-10T22:30:19.445Z,98.70
2018-11-10T22:32:48.722Z,98.30
2018-11-10T22:35:17.494Z,98.90
2018-11-10T22:37:46.178Z,99.10
2018-11-10T22:40:16.996Z,98.50
2018-11-10T22:42:46.037Z,98.90
2018-11-10T22:45:16.046Z,98.60
2018-11-10T22:47:44.797Z,98.80
2018-11-10T22:50:15.352Z,98.80
2018-11-10T22:52:44.686Z,98.70
2018-11-10T22:55:13.495Z,98.80
2018-11-10T22:57:42.329Z,98.90
2018-11-10T23:00:15.666Z,98.90
2018-11-10T23:02:46.933Z,98.80
2018-11-10T23:05:16.008Z,98.60
2018-11-10T23:07:44.753Z,98.50
2018-11-10T23:10:14.232Z,98.30
2018-11-10T23:12:43.565Z,98.10
2018-11-10T23:15:12.544Z,98.40
2018-11-10T23:17:41.381Z,98.20
2018-11-10T23:20:17.540Z,98.40
2018-11-10T23:22:46.321Z,98.50
2018-11-10T23:25:16.306Z,98.20
2018-11-10T23:27:45.083Z,98.50
2018-11-10T23:30:21.171Z,98.70
2018-11-10T23:32:49.958Z,98.50
2018-11-10T23:35:18.864Z,98.60
2018-11-10T23:37:47.602Z,98.60
2018-11-10T23:40:16.993Z,98.40
2018-11-10T23:42:45.777Z,98.20
2018-11-10T23:45:15.054Z,98.40
2018-11-10T23:47:43.713Z,98.40
2018-11-10T23:50:13.656Z,98.70
2018-11-10T23:52:42.391Z,98.30
2018-11-10T23:55:12.082Z,98.10
2018-11-10T23:57:40.868Z,98.20
